Terminal Aerodrome Forecast
Issued by NWS

Home | Current Version | Previous Version | Text Only | Print | Product List | Glossary Off
Versions: 1 2 3 4 5 6 7 8 9 10 11 12 13 14 15 16 17 18 19 20 21 22 23 24 25 26 27 28 29 30 31 32 33 34 35 36 37

000
FTUS43 KLOT 191100
TAFDPA
TAF
KDPA 191134Z 1912/2012 22009KT 6SM BR SCT015 BKN035
     FM191700 25012G20KT P6SM VCSH BKN035
     FM192200 27012G20KT P6SM BKN040
     FM200100 29006KT P6SM SCT040
     FM200700 VRB03KT 3SM BR SCT250=

USA.gov is the U.S. government's official web portal to all federal, state and local government web resources and services.